West Salem, Wisconsin
Current Conditions -  °F | °C
As of 2:53 PM on Saturday 20 Dec 2014 (Local Time) from KLSE Reporting Station
Haze Haze  
Wind Chill: 27°   Ceiling: 1300
Heat Index: 33°   Visibility: 6mi
Dew Point: 27°   Wind: 7mph
Humidity: 78%   Direction: 170°S
Pressure: 30.18"   Gusts: NA
Location:  43.9°N, 91.08°W
Report Text: KLSE 202053Z 17006KT 6SM HZ OVC013 01/M03 A3018 RMK AO2 SLP231 T00061028 55008
Loading
Personal Weather Stations






























Interactive Weather Map New forecast layout! Learn more

10-Day Weather Forecast

Advertisements
Track Severe Weather on mobile